Time;durP1;ratioP1;P1;durP2;ratioP2;P2;SDS_P1;SDS_P2;PMS_P1;PMS_P2;Temp;Humidity;BMP_temperature;BMP_pressure;BME280_temperature;BME280_humidity;BME280_pressure;Samples;Min_cycle;Max_cycle;Signal;HPM_P1;HPM_P2
2022/05/19 00:02:05;;;;;;;3.03;1.48;;;12.40;89.40;;;;;;4980300;28;20246;-91
2022/05/19 00:04:32;;;;;;;1.38;1.20;;;12.30;90.00;;;;;;4981687;28;20206;-90
2022/05/19 00:06:57;;;;;;;2.40;1.70;;;12.30;90.00;;;;;;4981064;28;20199;-90
2022/05/19 00:09:24;;;;;;;4.73;1.43;;;12.20;89.80;;;;;;4981016;28;20192;-91
2022/05/19 00:11:52;;;;;;;4.30;1.45;;;12.20;89.70;;;;;;4980441;28;20212;-91
2022/05/19 00:14:18;;;;;;;3.08;1.40;;;12.20;89.10;;;;;;4980826;28;20203;-91
2022/05/19 00:16:44;;;;;;;1.17;1.10;;;12.20;89.30;;;;;;4980499;28;20242;-92
2022/05/19 00:19:11;;;;;;;1.20;1.10;;;12.10;89.60;;;;;;4982324;28;20184;-93
2022/05/19 00:21:38;;;;;;;2.85;1.40;;;12.00;90.00;;;;;;4981596;28;20745;-90
2022/05/19 00:24:04;;;;;;;5.00;1.65;;;11.90;90.00;;;;;;4980832;28;20213;-92
2022/05/19 00:26:30;;;;;;;2.00;0.85;;;11.90;90.10;;;;;;4987140;28;20699;-91
2022/05/19 00:28:56;;;;;;;2.10;1.40;;;11.80;90.10;;;;;;5018115;28;20190;-91
2022/05/19 00:31:21;;;;;;;1.83;1.00;;;11.70;90.40;;;;;;5003542;28;20176;-92
2022/05/19 00:33:47;;;;;;;1.70;1.13;;;11.70;90.40;;;;;;5001347;28;20183;-91
2022/05/19 00:36:16;;;;;;;1.43;1.03;;;11.70;90.50;;;;;;5000544;28;20425;-91
2022/05/19 00:38:42;;;;;;;1.50;1.00;;;11.60;90.50;;;;;;5000240;28;20187;-92
2022/05/19 00:41:09;;;;;;;3.37;1.00;;;11.60;90.60;;;;;;4999488;28;20217;-91
2022/05/19 00:43:40;;;;;;;1.17;1.08;;;11.60;90.80;;;;;;5017816;28;20222;-92
2022/05/19 00:46:22;;;;;;;1.23;1.08;;;11.50;90.80;;;;;;5003418;28;20214;-92
2022/05/19 00:49:09;;;;;;;2.20;1.25;;;11.60;90.80;;;;;;5018541;28;20186;-92
2022/05/19 00:51:57;;;;;;;5.90;1.92;;;11.50;90.60;;;;;;5018313;28;20155;-92
2022/05/19 00:54:34;;;;;;;1.00;0.75;;;11.50;90.90;;;;;;4986435;28;20560;-90
2022/05/19 00:57:09;;;;;;;1.92;1.55;;;11.40;91.10;;;;;;5001602;28;20194;-91
2022/05/19 00:59:44;;;;;;;1.48;0.98;;;11.30;90.90;;;;;;5002279;28;20190;-92
2022/05/19 01:02:14;;;;;;;0.80;0.80;;;11.30;91.20;;;;;;5003640;28;20244;-91
2022/05/19 01:04:45;;;;;;;2.08;1.20;;;11.30;91.20;;;;;;5018447;28;20179;-91
2022/05/19 01:07:17;;;;;;;1.20;1.10;;;11.40;91.30;;;;;;5000299;28;20201;-91
2022/05/19 01:09:44;;;;;;;4.55;1.77;;;11.40;91.30;;;;;;5002288;28;20183;-92
2022/05/19 01:12:10;;;;;;;3.25;1.15;;;11.40;91.40;;;;;;5001948;28;20195;-91
2022/05/19 01:14:37;;;;;;;2.25;1.10;;;11.30;91.20;;;;;;5001616;28;20676;-92
2022/05/19 01:17:04;;;;;;;2.15;1.30;;;11.30;91.20;;;;;;5003462;28;20246;-91
2022/05/19 01:19:40;;;;;;;2.25;1.20;;;11.30;91.20;;;;;;5001062;28;20187;-92
2022/05/19 01:22:20;;;;;;;1.98;1.38;;;11.40;91.20;;;;;;5020295;28;20549;-91
2022/05/19 01:24:54;;;;;;;2.47;1.00;;;11.40;90.80;;;;;;5003837;28;20219;-91
2022/05/19 01:27:22;;;;;;;1.65;1.05;;;11.50;91.40;;;;;;5008724;28;20226;-91
2022/05/19 01:29:47;;;;;;;2.42;1.05;;;11.50;91.30;;;;;;4982076;28;20180;-91
2022/05/19 01:32:29;;;;;;;1.33;1.00;;;11.40;91.60;;;;;;4982739;28;20203;-91
2022/05/19 01:34:56;;;;;;;2.15;1.10;;;11.40;91.60;;;;;;5001763;28;20274;-92
2022/05/19 01:37:21;;;;;;;1.63;1.10;;;11.40;91.50;;;;;;4996009;28;20188;-92
2022/05/19 01:40:13;;;;;;;1.70;1.60;;;11.30;91.60;;;;;;4996307;28;20230;-91
2022/05/19 01:43:02;;;;;;;2.22;1.25;;;11.20;91.50;;;;;;4973226;28;20442;-92
2022/05/19 01:45:45;;;;;;;2.38;1.30;;;11.20;91.70;;;;;;4981077;28;20247;-91
2022/05/19 01:48:20;;;;;;;1.48;1.10;;;11.20;92.10;;;;;;4979660;28;20203;-91
2022/05/19 01:51:09;;;;;;;0.80;0.73;;;11.20;92.10;;;;;;4996499;28;20175;-89
2022/05/19 01:54:13;;;;;;;1.67;1.17;;;11.20;92.00;;;;;;4996434;28;20222;-91
2022/05/19 01:56:49;;;;;;;3.10;1.67;;;11.10;92.10;;;;;;4979608;28;20231;-91
2022/05/19 01:59:54;;;;;;;2.20;1.30;;;11.00;92.50;;;;;;4980991;28;20657;-91
2022/05/19 02:02:35;;;;;;;0.80;0.80;;;11.00;92.70;;;;;;4997248;28;20278;-91
2022/05/19 02:05:30;;;;;;;1.52;1.40;;;10.90;92.50;;;;;;4979746;28;20247;-91
2022/05/19 02:07:59;;;;;;;1.63;1.13;;;10.80;92.50;;;;;;4962332;28;20294;-91
2022/05/19 02:10:29;;;;;;;2.55;1.17;;;10.80;92.90;;;;;;4979659;28;20330;-92
2022/05/19 02:12:58;;;;;;;1.95;1.20;;;10.70;92.90;;;;;;4979364;28;20195;-90
2022/05/19 02:15:27;;;;;;;1.50;1.20;;;10.60;92.80;;;;;;4981345;28;20318;-92
2022/05/19 02:17:54;;;;;;;1.30;1.13;;;10.50;92.90;;;;;;4996753;28;20235;-92
2022/05/19 02:20:23;;;;;;;1.35;1.15;;;10.50;93.30;;;;;;4997432;28;20187;-92
2022/05/19 02:22:49;;;;;;;1.45;1.25;;;10.50;93.30;;;;;;4998595;28;20192;-92
2022/05/19 02:25:23;;;;;;;1.87;1.33;;;10.50;93.40;;;;;;4980109;28;20203;-90
2022/05/19 02:28:11;;;;;;;3.05;1.30;;;10.50;93.20;;;;;;4996508;28;20566;-91
2022/05/19 02:30:40;;;;;;;2.42;1.30;;;10.40;92.90;;;;;;5002374;28;20228;-91
2022/05/19 02:33:06;;;;;;;3.95;1.10;;;10.30;92.90;;;;;;5017139;28;20286;-91
2022/05/19 02:35:32;;;;;;;1.75;0.90;;;10.30;93.10;;;;;;5018526;28;20171;-92
2022/05/19 02:37:58;;;;;;;1.20;1.10;;;10.30;93.10;;;;;;5001286;28;20612;-92
2022/05/19 02:40:27;;;;;;;2.88;1.02;;;10.30;92.90;;;;;;5018617;28;20928;-91
2022/05/19 02:42:52;;;;;;;0.70;0.70;;;10.20;92.80;;;;;;5019025;28;20214;-92
2022/05/19 02:45:20;;;;;;;1.43;0.80;;;10.20;93.00;;;;;;5014491;28;20203;-92
2022/05/19 02:47:46;;;;;;;3.83;1.15;;;10.10;93.20;;;;;;5010598;28;20202;-91
2022/05/19 02:50:13;;;;;;;1.70;1.20;;;10.00;93.20;;;;;;5001342;28;20175;-92
2022/05/19 02:52:39;;;;;;;2.53;1.17;;;10.00;93.60;;;;;;5014709;28;20687;-91
2022/05/19 02:55:06;;;;;;;1.20;1.10;;;10.00;93.60;;;;;;4997639;28;20191;-91
2022/05/19 02:57:32;;;;;;;2.05;1.20;;;10.00;93.90;;;;;;5000234;28;20341;-92
2022/05/19 02:59:59;;;;;;;1.65;1.42;;;9.90;93.60;;;;;;4997702;28;20278;-91
2022/05/19 03:02:25;;;;;;;1.55;1.42;;;9.90;93.50;;;;;;4997082;28;20290;-92
2022/05/19 03:04:50;;;;;;;3.40;1.55;;;9.90;93.70;;;;;;4997665;28;20554;-92
2022/05/19 03:07:16;;;;;;;2.33;1.70;;;9.90;93.70;;;;;;5015302;28;20273;-90
2022/05/19 03:09:42;;;;;;;1.33;1.23;;;9.90;93.70;;;;;;5001981;28;20183;-91
2022/05/19 03:12:12;;;;;;;2.33;1.15;;;9.80;94.00;;;;;;5004586;28;20435;-91
2022/05/19 03:14:39;;;;;;;3.05;1.27;;;9.80;94.10;;;;;;5002248;28;20190;-91
2022/05/19 03:17:07;;;;;;;5.15;1.65;;;9.90;94.00;;;;;;5001614;28;20692;-92
2022/05/19 03:19:33;;;;;;;1.00;0.88;;;10.00;93.90;;;;;;5001963;28;20183;-91
2022/05/19 03:21:59;;;;;;;1.80;1.30;;;10.00;93.90;;;;;;5002457;28;20286;-92
2022/05/19 03:24:25;;;;;;;1.73;1.20;;;10.10;94.00;;;;;;5003336;28;20649;-90
2022/05/19 03:26:50;;;;;;;1.47;1.20;;;10.20;94.10;;;;;;4995519;28;20220;-91
2022/05/19 03:29:16;;;;;;;2.17;1.40;;;10.20;94.00;;;;;;5000312;28;20202;-91
2022/05/19 03:31:43;;;;;;;1.30;0.97;;;10.20;93.90;;;;;;4982421;28;20196;-92
2022/05/19 03:34:08;;;;;;;1.27;1.17;;;10.30;93.80;;;;;;4982895;28;20190;-92
2022/05/19 03:36:35;;;;;;;1.37;1.27;;;10.30;93.70;;;;;;4983658;28;20179;-91
2022/05/19 03:39:01;;;;;;;1.67;1.17;;;10.40;93.70;;;;;;4983827;28;20270;-92
2022/05/19 03:41:27;;;;;;;1.27;0.90;;;10.50;93.50;;;;;;5002662;28;20168;-92
2022/05/19 03:43:52;;;;;;;1.70;1.33;;;10.50;93.30;;;;;;5001631;28;20283;-92
2022/05/19 03:46:19;;;;;;;2.27;1.53;;;10.60;93.20;;;;;;4986756;28;20492;-93
2022/05/19 03:48:45;;;;;;;1.42;1.10;;;10.60;93.30;;;;;;4983672;28;20425;-92
2022/05/19 03:51:23;;;;;;;1.05;1.00;;;10.60;93.50;;;;;;4983757;28;20175;-91
2022/05/19 03:53:50;;;;;;;1.40;1.30;;;10.70;93.70;;;;;;4985518;28;20646;-91
2022/05/19 03:56:17;;;;;;;1.33;1.10;;;10.70;93.80;;;;;;4985719;28;20176;-91
2022/05/19 03:58:42;;;;;;;2.92;1.98;;;10.80;93.90;;;;;;5001786;28;20187;-92
2022/05/19 04:01:08;;;;;;;1.40;1.30;;;10.80;93.80;;;;;;5009688;28;20235;-90
2022/05/19 04:03:34;;;;;;;1.53;1.10;;;10.90;94.60;;;;;;5004791;28;20456;-92
2022/05/19 04:06:00;;;;;;;1.50;1.40;;;11.00;95.20;;;;;;4996001;28;20215;-91
2022/05/19 04:08:25;;;;;;;1.50;1.40;;;11.10;95.80;;;;;;4986430;28;20211;-90
2022/05/19 04:10:51;;;;;;;2.03;1.33;;;11.20;96.50;;;;;;4987309;28;20184;-92
2022/05/19 04:13:17;;;;;;;1.60;1.50;;;11.30;97.40;;;;;;5011070;28;20198;-92
2022/05/19 04:15:43;;;;;;;2.97;1.20;;;11.40;98.20;;;;;;4985378;28;20227;-92
2022/05/19 04:18:09;;;;;;;3.92;1.83;;;11.50;99.20;;;;;;4997337;28;20218;-92
2022/05/19 04:20:35;;;;;;;2.00;1.80;;;11.70;99.90;;;;;;4999072;28;20179;-92
2022/05/19 04:23:01;;;;;;;3.50;1.60;;;11.80;99.90;;;;;;4986824;28;20450;-91
2022/05/19 04:25:29;;;;;;;2.03;1.42;;;11.90;98.00;;;;;;4988300;28;20474;-90
2022/05/19 04:27:56;;;;;;;1.65;1.17;;;11.90;96.00;;;;;;4997271;28;20684;-93
2022/05/19 04:30:22;;;;;;;2.35;1.63;;;12.00;94.90;;;;;;5016900;28;20179;-92
2022/05/19 04:32:48;;;;;;;3.33;1.70;;;12.00;94.60;;;;;;4999117;28;20691;-92
2022/05/19 04:35:15;;;;;;;2.60;1.60;;;12.10;94.50;;;;;;4999475;28;20436;-89
2022/05/19 04:37:42;;;;;;;3.00;1.50;;;12.20;94.80;;;;;;5017632;28;20187;-91
2022/05/19 04:40:09;;;;;;;2.03;1.42;;;12.20;95.20;;;;;;5004346;28;20189;-92
2022/05/19 04:42:35;;;;;;;1.80;1.60;;;12.30;95.10;;;;;;4999279;28;20226;-92
2022/05/19 04:45:00;;;;;;;3.67;1.70;;;12.40;94.50;;;;;;4998242;28;20667;-92
2022/05/19 04:47:26;;;;;;;1.17;1.07;;;12.50;94.00;;;;;;4998172;28;20437;-91
2022/05/19 04:49:52;;;;;;;2.15;1.40;;;12.60;93.90;;;;;;4999827;28;20193;-92
2022/05/19 04:52:20;;;;;;;19.77;9.20;;;12.70;93.80;;;;;;4995849;28;20271;-91
2022/05/19 04:54:46;;;;;;;2.83;2.30;;;12.80;94.00;;;;;;4986228;28;20183;-90
2022/05/19 04:57:12;;;;;;;7.40;3.63;;;12.90;94.30;;;;;;4999547;28;20225;-92
2022/05/19 04:59:39;;;;;;;2.30;1.70;;;13.00;94.30;;;;;;5013212;28;20266;-92
2022/05/19 05:02:05;;;;;;;1.73;1.55;;;13.10;94.00;;;;;;5004509;28;20203;-92
2022/05/19 05:04:31;;;;;;;1.55;1.45;;;13.20;93.70;;;;;;4992564;28;20176;-92
2022/05/19 05:06:57;;;;;;;1.90;1.50;;;13.30;93.60;;;;;;5000204;28;20211;-92
2022/05/19 05:09:24;;;;;;;7.32;1.52;;;13.40;93.90;;;;;;5000708;28;20444;-93
2022/05/19 05:11:50;;;;;;;2.20;1.50;;;13.50;94.00;;;;;;5000312;28;20207;-92
2022/05/19 05:14:17;;;;;;;2.30;1.35;;;13.60;93.40;;;;;;4980742;28;20184;-92
2022/05/19 05:16:47;;;;;;;2.10;1.83;;;13.70;93.20;;;;;;4994278;28;20242;-91
2022/05/19 05:19:18;;;;;;;1.40;1.30;;;13.80;93.30;;;;;;4982209;28;20568;-93
2022/05/19 05:21:48;;;;;;;2.63;1.30;;;13.90;92.70;;;;;;4996898;28;20516;-92
2022/05/19 05:24:14;;;;;;;2.67;1.60;;;14.00;92.80;;;;;;5016156;28;20417;-93
2022/05/19 05:26:40;;;;;;;2.40;1.37;;;14.10;92.40;;;;;;5013939;28;20476;-91
2022/05/19 05:29:06;;;;;;;2.10;1.53;;;14.20;92.30;;;;;;5014349;28;20428;-91
2022/05/19 05:31:32;;;;;;;2.27;1.00;;;14.30;92.70;;;;;;5015207;28;20676;-93
2022/05/19 05:33:58;;;;;;;3.00;1.43;;;14.30;92.50;;;;;;4999486;28;20416;-92
2022/05/19 05:36:24;;;;;;;1.30;1.20;;;14.40;92.20;;;;;;5000252;28;20567;-93
2022/05/19 05:38:50;;;;;;;1.20;1.10;;;14.50;91.90;;;;;;4999733;28;20313;-92
2022/05/19 05:41:16;;;;;;;1.60;1.50;;;14.60;91.80;;;;;;5018477;28;20467;-90
2022/05/19 05:43:42;;;;;;;2.50;1.47;;;14.70;91.80;;;;;;5016634;28;20425;-91
2022/05/19 05:46:16;;;;;;;1.23;1.07;;;14.80;91.70;;;;;;5016863;28;20917;-91
2022/05/19 05:48:45;;;;;;;2.83;1.20;;;14.90;91.60;;;;;;4999419;28;20464;-91
2022/05/19 05:51:12;;;;;;;3.90;1.97;;;15.10;91.50;;;;;;5016997;28;20405;-92
2022/05/19 05:53:40;;;;;;;1.47;1.17;;;15.20;91.50;;;;;;5022529;28;20523;-91
2022/05/19 05:56:09;;;;;;;1.90;1.60;;;15.30;91.10;;;;;;4990407;28;20413;-91
2022/05/19 05:58:36;;;;;;;1.17;1.07;;;15.40;90.80;;;;;;4983045;28;20495;-91
2022/05/19 06:01:04;;;;;;;2.70;1.20;;;15.50;90.40;;;;;;4993350;28;20417;-92
2022/05/19 06:03:30;;;;;;;1.33;1.03;;;15.60;90.00;;;;;;5011201;28;20452;-91
2022/05/19 06:05:56;;;;;;;2.60;1.40;;;15.80;89.50;;;;;;4995831;28;20499;-91
2022/05/19 06:08:22;;;;;;;2.60;1.47;;;15.80;88.20;;;;;;5014366;28;20858;-93
2022/05/19 06:10:47;;;;;;;2.10;1.67;;;16.00;87.60;;;;;;4997259;28;20636;-92
2022/05/19 06:13:15;;;;;;;1.50;1.30;;;16.10;87.80;;;;;;5013697;28;20235;-91
2022/05/19 06:15:42;;;;;;;2.90;1.30;;;16.20;87.30;;;;;;4949718;28;1308441;-91
2022/05/19 06:18:08;;;;;;;1.27;0.83;;;16.30;85.50;;;;;;5014592;28;20206;-92
2022/05/19 06:20:34;;;;;;;1.43;1.10;;;16.40;85.50;;;;;;4996429;28;20424;-90
2022/05/19 06:23:00;;;;;;;1.90;1.13;;;16.50;83.60;;;;;;4995396;28;20527;-91
2022/05/19 06:25:27;;;;;;;2.30;1.17;;;16.70;82.80;;;;;;4996150;28;20484;-91
2022/05/19 06:27:53;;;;;;;1.47;1.00;;;16.80;81.40;;;;;;5014982;28;20436;-91
2022/05/19 06:30:20;;;;;;;2.30;1.17;;;16.90;81.90;;;;;;5010756;28;20528;-92
2022/05/19 06:32:50;;;;;;;0.80;0.60;;;17.00;81.80;;;;;;4995255;28;20452;-93
2022/05/19 06:35:19;;;;;;;2.17;1.00;;;17.10;79.70;;;;;;4991089;28;20449;-93
2022/05/19 06:37:46;;;;;;;1.50;1.30;;;17.20;79.90;;;;;;4996336;28;20437;-92
2022/05/19 06:40:15;;;;;;;1.70;1.17;;;17.30;79.60;;;;;;4995338;28;20792;-92
2022/05/19 06:42:42;;;;;;;0.93;0.93;;;17.40;79.60;;;;;;5003029;28;20978;-93
2022/05/19 06:45:09;;;;;;;1.93;1.20;;;17.50;80.30;;;;;;5028269;28;20472;-91
2022/05/19 06:47:36;;;;;;;2.40;0.80;;;17.60;79.10;;;;;;5000390;28;20539;-92
2022/05/19 06:50:04;;;;;;;1.40;1.03;;;17.80;79.30;;;;;;4998593;28;20469;-92
2022/05/19 06:52:32;;;;;;;1.97;1.30;;;17.90;79.10;;;;;;4997695;28;20454;-92
2022/05/19 06:55:02;;;;;;;1.30;1.20;;;18.00;79.50;;;;;;4992738;28;20494;-92
2022/05/19 06:57:31;;;;;;;1.20;0.93;;;18.10;78.40;;;;;;4999537;28;20455;-92
2022/05/19 06:59:57;;;;;;;1.00;0.90;;;18.30;77.60;;;;;;4996262;28;20444;-92
2022/05/19 07:02:24;;;;;;;105.83;55.73;;;18.30;75.10;;;;;;4999558;28;21187;-92
2022/05/19 07:04:51;;;;;;;8.83;6.47;;;18.40;75.40;;;;;;5016801;28;20218;-92
2022/05/19 07:07:17;;;;;;;1.57;1.10;;;18.50;75.10;;;;;;5002091;28;20436;-92
2022/05/19 07:09:44;;;;;;;1.37;0.80;;;18.60;75.00;;;;;;4999202;28;20436;-93
2022/05/19 07:12:11;;;;;;;2.20;1.20;;;18.70;74.20;;;;;;4994914;28;20497;-92
2022/05/19 07:14:38;;;;;;;1.20;0.60;;;18.80;72.20;;;;;;5000837;28;20435;-92
2022/05/19 07:17:04;;;;;;;1.80;0.87;;;18.80;71.90;;;;;;4999386;28;20512;-92
2022/05/19 07:22:19;;;;;;;1.07;0.90;;;19.00;70.40;;;;;;5012594;28;20500;-92
2022/05/19 07:24:46;;;;;;;2.50;0.80;;;19.20;71.50;;;;;;4998923;28;20441;-92
2022/05/19 07:27:12;;;;;;;1.70;0.80;;;19.20;71.50;;;;;;4998318;28;20829;-93
2022/05/19 07:29:39;;;;;;;1.43;0.77;;;19.30;71.20;;;;;;5007725;28;20827;-92
2022/05/19 07:32:05;;;;;;;1.00;0.70;;;19.40;71.00;;;;;;5015031;28;20448;-93
2022/05/19 07:34:33;;;;;;;0.57;0.57;;;19.50;70.50;;;;;;5018960;28;20431;-93
2022/05/19 07:37:00;;;;;;;0.90;0.50;;;19.60;70.70;;;;;;5015265;28;20475;-93
2022/05/19 07:39:26;;;;;;;0.70;0.50;;;19.70;69.80;;;;;;4996696;28;20436;-93
2022/05/19 07:41:55;;;;;;;0.70;0.67;;;19.80;68.70;;;;;;5002436;28;20524;-91
2022/05/19 07:44:22;;;;;;;2.00;0.87;;;19.90;69.20;;;;;;5000565;28;20488;-91
2022/05/19 07:46:48;;;;;;;1.87;0.97;;;19.90;68.50;;;;;;4998647;28;20538;-91
2022/05/19 07:49:14;;;;;;;0.80;0.80;;;20.00;72.70;;;;;;5000339;28;20447;-91
2022/05/19 07:51:41;;;;;;;0.87;0.80;;;20.10;77.30;;;;;;5016320;28;20872;-91
2022/05/19 07:54:14;;;;;;;0.67;0.67;;;20.10;73.80;;;;;;5014056;28;20442;-91
2022/05/19 07:56:41;;;;;;;0.97;0.80;;;20.20;69.70;;;;;;4998271;28;20478;-91
2022/05/19 07:59:08;;;;;;;0.80;0.60;;;20.30;69.00;;;;;;5016091;28;20446;-91
2022/05/19 08:01:34;;;;;;;1.73;0.60;;;20.30;68.50;;;;;;4997271;28;20818;-91
2022/05/19 08:04:01;;;;;;;1.37;0.70;;;20.40;68.20;;;;;;5017660;28;20430;-92
2022/05/19 08:06:30;;;;;;;0.90;0.80;;;20.50;67.70;;;;;;4987530;28;20502;-92
2022/05/19 08:08:58;;;;;;;2.30;1.00;;;20.60;67.50;;;;;;4994619;28;20182;-92
2022/05/19 08:11:25;;;;;;;1.00;0.77;;;20.80;67.00;;;;;;5005525;28;20433;-92
2022/05/19 08:16:35;;;;;;;0.90;0.60;;;21.00;66.80;;;;;;5014920;28;20471;-92
2022/05/19 08:19:02;;;;;;;1.47;0.77;;;21.10;66.50;;;;;;4995762;28;20436;-92
2022/05/19 08:21:28;;;;;;;0.50;0.50;;;21.30;68.10;;;;;;5009665;28;20451;-91
2022/05/19 08:23:54;;;;;;;1.43;0.93;;;21.40;67.50;;;;;;4993977;28;20465;-93
2022/05/19 08:26:21;;;;;;;0.87;0.70;;;21.60;69.10;;;;;;4997340;28;20211;-93
2022/05/19 08:28:48;;;;;;;1.03;0.90;;;21.80;66.30;;;;;;4999565;28;20424;-92
2022/05/19 08:31:20;;;;;;;1.63;0.90;;;21.90;66.00;;;;;;4992381;28;20501;-91
2022/05/19 08:33:53;;;;;;;1.00;0.60;;;22.10;67.60;;;;;;4994009;28;20432;-92
2022/05/19 08:36:19;;;;;;;1.13;0.87;;;22.30;64.80;;;;;;4995456;28;20445;-91
2022/05/19 08:38:46;;;;;;;1.07;0.73;;;22.40;64.30;;;;;;4996481;28;20527;-90
2022/05/19 08:41:14;;;;;;;1.60;0.80;;;22.60;64.00;;;;;;4995515;28;20455;-91
2022/05/19 08:43:58;;;;;;;2.07;1.00;;;22.70;64.80;;;;;;4994689;28;20852;-93
2022/05/19 08:46:30;;;;;;;1.47;0.70;;;22.80;67.50;;;;;;4997778;28;20606;-93
2022/05/19 08:49:01;;;;;;;1.63;1.20;;;23.00;64.50;;;;;;5003630;28;20516;-92
2022/05/19 08:51:35;;;;;;;2.03;0.90;;;23.20;65.50;;;;;;4995634;28;20421;-92
2022/05/19 08:54:07;;;;;;;1.10;0.60;;;23.30;63.30;;;;;;4996568;28;20552;-93
2022/05/19 08:56:40;;;;;;;0.60;0.50;;;23.40;63.10;;;;;;4996733;28;20433;-93
2022/05/19 08:59:37;;;;;;;1.40;0.60;;;23.50;64.20;;;;;;4995437;28;20816;-91
2022/05/19 09:02:22;;;;;;;0.50;0.50;;;23.60;62.80;;;;;;5004918;28;20446;-92
2022/05/19 09:05:06;;;;;;;3.67;0.80;;;23.70;62.10;;;;;;4993913;28;20453;-93
2022/05/19 09:10:32;;;;;;;2.60;0.80;;;23.80;65.10;;;;;;5014198;28;20448;-92
2022/05/19 09:13:16;;;;;;;1.87;1.00;;;23.90;64.10;;;;;;4984814;28;20959;-92
2022/05/19 09:15:46;;;;;;;0.90;0.80;;;24.00;62.10;;;;;;4985221;28;20491;-93
2022/05/19 09:18:16;;;;;;;0.80;0.60;;;24.10;62.10;;;;;;4997458;28;20493;-93
2022/05/19 09:21:05;;;;;;;1.07;0.70;;;24.10;62.60;;;;;;4995008;28;20450;-93
2022/05/19 09:23:35;;;;;;;1.13;0.73;;;24.20;62.20;;;;;;4995352;28;20513;-93
2022/05/19 09:26:39;;;;;;;0.90;0.57;;;24.30;62.60;;;;;;4992115;28;20481;-93
2022/05/19 09:29:09;;;;;;;0.67;0.67;;;24.40;60.20;;;;;;4996868;28;20429;-91
2022/05/19 09:31:53;;;;;;;0.80;0.63;;;24.60;62.00;;;;;;5005144;28;20435;-93
2022/05/19 09:34:25;;;;;;;0.93;0.73;;;24.60;60.80;;;;;;4998390;28;20538;-91
2022/05/19 09:37:14;;;;;;;0.70;0.63;;;24.70;62.50;;;;;;4997455;28;20446;-92
2022/05/19 09:40:00;;;;;;;0.70;0.57;;;24.90;59.60;;;;;;4984845;28;20459;-92
2022/05/19 09:42:36;;;;;;;2.20;0.80;;;24.90;60.50;;;;;;4993094;28;20474;-92
2022/05/19 09:45:03;;;;;;;0.80;0.70;;;25.00;60.40;;;;;;5006082;28;20504;-92
2022/05/19 09:47:35;;;;;;;1.40;0.90;;;25.00;59.80;;;;;;4988119;28;20543;-91
2022/05/19 09:50:16;;;;;;;1.33;0.70;;;25.00;61.50;;;;;;4977563;28;21000;-93
2022/05/19 09:52:43;;;;;;;1.00;0.90;;;25.00;58.30;;;;;;4994237;28;21195;-93
2022/05/19 09:55:13;;;;;;;1.23;0.90;;;25.00;62.00;;;;;;4994282;28;20470;-91
2022/05/19 09:57:53;;;;;;;0.70;0.70;;;25.10;59.10;;;;;;5001246;28;20485;-91
2022/05/19 10:00:36;;;;;;;1.77;0.83;;;25.20;59.20;;;;;;5001920;28;20433;-92
2022/05/19 10:03:08;;;;;;;0.80;0.57;;;25.20;60.90;;;;;;5010291;28;20451;-92
2022/05/19 10:05:42;;;;;;;0.80;0.70;;;25.20;58.40;;;;;;4995369;28;20487;-92
2022/05/19 10:08:15;;;;;;;0.70;0.63;;;25.20;58.80;;;;;;5008338;28;20574;-93
2022/05/19 10:11:04;;;;;;;0.97;0.80;;;25.20;58.10;;;;;;5014126;28;20430;-92
2022/05/19 10:13:46;;;;;;;2.97;0.90;;;25.30;60.60;;;;;;4992958;28;20463;-93
2022/05/19 10:16:35;;;;;;;2.35;0.93;;;25.30;58.30;;;;;;4989434;28;20436;-92
2022/05/19 10:19:31;;;;;;;1.83;0.60;;;25.40;57.00;;;;;;4993078;28;20739;-92
2022/05/19 10:22:27;;;;;;;0.80;0.77;;;25.40;59.70;;;;;;5010436;28;20850;-92
2022/05/19 10:25:33;;;;;;;1.33;1.23;;;25.30;60.60;;;;;;4994737;28;20706;-93
2022/05/19 10:31:13;;;;;;;1.00;0.80;;;25.30;59.40;;;;;;5004063;28;20494;-92
2022/05/19 10:33:58;;;;;;;1.07;0.70;;;25.30;59.80;;;;;;4993225;28;20486;-93
2022/05/19 10:37:06;;;;;;;0.70;0.70;;;25.40;58.70;;;;;;5008502;28;20683;-93
2022/05/19 10:39:52;;;;;;;1.37;0.80;;;25.40;57.90;;;;;;5006605;28;20585;-92
2022/05/19 10:42:21;;;;;;;0.80;0.80;;;25.40;59.20;;;;;;5010886;28;20463;-92
2022/05/19 10:44:53;;;;;;;1.00;0.80;;;25.30;56.70;;;;;;5000197;28;20463;-93
2022/05/19 10:47:46;;;;;;;0.80;0.57;;;25.20;57.40;;;;;;5018010;28;20511;-93
2022/05/19 10:50:31;;;;;;;0.70;0.70;;;25.10;56.20;;;;;;5014294;28;20481;-90
2022/05/19 10:53:34;;;;;;;5.10;0.90;;;24.90;57.10;;;;;;5012821;28;20875;-93
2022/05/19 10:56:25;;;;;;;0.95;0.80;;;24.90;57.70;;;;;;5007908;28;20420;-93
2022/05/19 10:59:12;;;;;;;1.00;0.80;;;25.00;56.80;;;;;;5019598;28;20202;-90
2022/05/19 11:02:03;;;;;;;0.93;0.80;;;25.00;57.10;;;;;;4988685;28;20468;-91
2022/05/19 11:04:55;;;;;;;0.83;0.83;;;25.10;59.60;;;;;;4987071;28;20451;-91
2022/05/19 11:07:29;;;;;;;1.10;0.60;;;25.10;56.10;;;;;;5003416;28;20862;-91
2022/05/19 11:10:25;;;;;;;1.00;0.87;;;25.00;57.90;;;;;;4991979;28;20827;-91
2022/05/19 11:13:20;;;;;;;1.67;0.80;;;24.90;56.50;;;;;;5007932;28;20825;-92
2022/05/19 11:16:02;;;;;;;0.90;0.80;;;24.90;57.30;;;;;;4951569;28;20495;-92
2022/05/19 11:19:09;;;;;;;0.90;0.70;;;24.80;56.00;;;;;;5003685;28;20491;-92
2022/05/19 11:22:10;;;;;;;1.30;1.00;;;24.80;53.80;;;;;;4990158;28;20447;-91
2022/05/19 11:27:43;;;;;;;0.77;0.70;;;24.70;54.60;;;;;;5003819;28;21007;-92
2022/05/19 11:30:16;;;;;;;1.37;0.70;;;24.70;56.20;;;;;;4999899;28;20434;-92
2022/05/19 11:32:43;;;;;;;0.90;0.80;;;24.70;56.90;;;;;;5033715;28;20443;-91
2022/05/19 11:35:51;;;;;;;0.93;0.80;;;24.70;55.10;;;;;;5026639;28;20489;-91
2022/05/19 11:38:26;;;;;;;0.97;0.80;;;24.70;55.00;;;;;;5007241;28;20455;-92
2022/05/19 11:41:25;;;;;;;1.37;0.77;;;24.70;55.80;;;;;;5016047;28;20464;-93
2022/05/19 11:44:19;;;;;;;0.73;0.70;;;24.70;56.50;;;;;;5006511;28;20446;-92
2022/05/19 11:47:10;;;;;;;1.17;0.87;;;24.70;56.10;;;;;;4991332;28;20488;-91
2022/05/19 11:55:39;;;;;;;0.87;0.70;;;24.70;55.70;;;;;;5009172;28;20422;-91
2022/05/19 11:58:28;;;;;;;0.73;0.73;;;24.70;54.70;;;;;;4992610;28;20610;-91
2022/05/19 12:01:31;;;;;;;1.40;0.70;;;24.60;55.40;;;;;;5007286;28;20515;-92
2022/05/19 12:03:59;;;;;;;1.80;1.33;;;24.60;56.20;;;;;;4972871;28;20528;-92
2022/05/19 12:06:35;;;;;;;3.90;1.10;;;24.60;56.10;;;;;;4997362;28;20475;-93
2022/05/19 12:09:20;;;;;;;1.10;0.90;;;24.60;56.00;;;;;;5008394;28;20449;-92
2022/05/19 12:11:57;;;;;;;0.90;0.80;;;24.70;56.40;;;;;;4992465;28;20905;-92
2022/05/19 12:14:27;;;;;;;1.10;1.00;;;24.70;57.00;;;;;;4998018;28;20447;-92
2022/05/19 12:16:59;;;;;;;1.10;0.70;;;24.70;55.40;;;;;;4993466;28;20519;-92
2022/05/19 12:19:33;;;;;;;1.00;0.70;;;24.70;56.20;;;;;;4996814;28;20483;-90
2022/05/19 12:22:01;;;;;;;1.87;0.83;;;24.80;56.90;;;;;;4995322;28;20442;-91
2022/05/19 12:24:34;;;;;;;1.10;0.90;;;24.80;56.10;;;;;;4993600;28;21107;-92
2022/05/19 12:27:09;;;;;;;1.27;0.87;;;24.90;57.40;;;;;;5007236;28;21677;-91
2022/05/19 12:29:47;;;;;;;1.47;1.10;;;25.00;57.30;;;;;;5000766;28;20967;-91
2022/05/19 12:32:36;;;;;;;1.43;0.87;;;25.00;56.20;;;;;;4992360;28;20463;-90
2022/05/19 12:35:09;;;;;;;3.40;0.87;;;25.10;56.70;;;;;;5006468;28;20479;-91
2022/05/19 12:37:45;;;;;;;0.60;0.60;;;25.20;57.00;;;;;;4987074;28;20820;-91
2022/05/19 12:40:28;;;;;;;0.87;0.87;;;25.20;55.80;;;;;;5017693;28;20501;-92
2022/05/19 12:43:13;;;;;;;1.27;0.97;;;25.30;55.00;;;;;;4993467;28;20440;-91
2022/05/19 12:46:09;;;;;;;2.83;1.00;;;25.30;54.10;;;;;;4988368;28;20467;-89
2022/05/19 12:48:35;;;;;;;0.80;0.80;;;25.30;54.60;;;;;;4986764;28;20497;-90
2022/05/19 12:51:08;;;;;;;1.23;1.00;;;25.30;54.60;;;;;;4998184;28;20974;-90
2022/05/19 12:53:49;;;;;;;0.93;0.77;;;25.30;55.30;;;;;;4997993;28;20210;-92
2022/05/19 12:56:40;;;;;;;1.10;0.60;;;25.30;54.20;;;;;;5013456;28;20434;-90
2022/05/19 12:59:41;;;;;;;1.53;0.97;;;25.30;54.10;;;;;;4997308;28;20463;-90
2022/05/19 13:02:31;;;;;;;1.10;1.00;;;25.30;54.40;;;;;;4989031;28;20967;-91
2022/05/19 13:05:12;;;;;;;1.20;0.93;;;25.30;55.20;;;;;;5013262;28;20489;-90
2022/05/19 13:07:41;;;;;;;3.90;1.33;;;25.30;55.20;;;;;;5016623;28;20465;-91
2022/05/19 13:10:23;;;;;;;12.53;1.83;;;25.30;54.20;;;;;;4997485;28;20470;-92
2022/05/19 13:13:15;;;;;;;1.00;0.60;;;25.30;54.80;;;;;;5026762;28;20794;-92
2022/05/19 13:15:54;;;;;;;0.90;0.90;;;25.30;54.90;;;;;;4997024;28;20902;-92
2022/05/19 13:18:29;;;;;;;0.90;0.80;;;25.30;54.60;;;;;;4992603;28;20740;-92
2022/05/19 13:21:09;;;;;;;2.40;0.87;;;25.30;54.60;;;;;;4998222;28;20478;-92
2022/05/19 13:23:39;;;;;;;0.77;0.77;;;25.40;56.30;;;;;;5013549;28;20443;-92
2022/05/19 13:26:14;;;;;;;1.10;1.00;;;25.50;56.30;;;;;;5011496;28;21015;-91
2022/05/19 13:31:27;;;;;;;0.80;0.77;;;25.80;56.30;;;;;;5012972;28;20451;-92
2022/05/19 13:33:59;;;;;;;0.70;0.70;;;25.90;55.70;;;;;;4995464;28;20446;-92
2022/05/19 13:36:32;;;;;;;1.27;0.90;;;26.00;54.90;;;;;;4985435;28;20464;-92
2022/05/19 13:39:11;;;;;;;1.47;1.00;;;26.10;54.50;;;;;;4993015;28;20442;-93
2022/05/19 13:41:45;;;;;;;1.73;0.80;;;26.10;54.70;;;;;;4996877;28;20502;-93